METAR Data
IDs: Format: Raw Decoded Include TAF

Data at: 2041 UTC 25 Oct 2021

LKKB 252000Z 15002KT CAVOK 04/01 Q1022 NOSIG